Time;durP1;ratioP1;P1;durP2;ratioP2;P2;SDS_P1;SDS_P2;PMS_P1;PMS_P2;Temp;Humidity;BMP_temperature;BMP_pressure;BME280_temperature;BME280_humidity;BME280_pressure;Samples;Min_cycle;Max_cycle;Signal;HPM_P1;HPM_P2
2022/11/20 00:00:24;;;;;;;23.57;13.10;;;4.90;99.90;;;;;;5052910;28;20190;-62
2022/11/20 00:02:50;;;;;;;24.37;14.00;;;5.00;99.90;;;;;;5055141;28;20230;-63
2022/11/20 00:05:16;;;;;;;26.50;13.53;;;4.90;99.90;;;;;;5068304;28;20235;-62
2022/11/20 00:07:42;;;;;;;29.93;15.03;;;4.70;99.90;;;;;;5060512;28;20594;-61
2022/11/20 00:10:08;;;;;;;29.20;13.20;;;4.50;99.90;;;;;;5071591;28;20221;-61
2022/11/20 00:12:34;;;;;;;23.97;12.43;;;4.50;99.90;;;;;;5067601;28;20201;-61
2022/11/20 00:14:59;;;;;;;23.13;13.53;;;4.50;99.90;;;;;;5069664;28;20280;-61
2022/11/20 00:17:25;;;;;;;25.20;13.37;;;4.40;99.90;;;;;;5062809;28;20661;-61
2022/11/20 00:19:51;;;;;;;26.47;13.80;;;4.60;99.90;;;;;;5055020;28;20200;-62
2022/11/20 00:22:16;;;;;;;24.27;13.33;;;4.70;99.90;;;;;;5051744;28;20181;-62
2022/11/20 00:24:42;;;;;;;29.67;13.77;;;4.90;99.90;;;;;;5053843;28;20186;-61
2022/11/20 00:27:08;;;;;;;31.13;14.50;;;4.90;99.90;;;;;;5052398;28;20189;-60
2022/11/20 00:29:33;;;;;;;26.83;13.10;;;4.80;99.90;;;;;;5054690;28;20263;-61
2022/11/20 00:31:59;;;;;;;29.93;14.67;;;4.80;99.90;;;;;;5056294;28;20650;-61
2022/11/20 00:34:25;;;;;;;20.70;13.73;;;4.70;99.90;;;;;;5072235;28;20586;-61
2022/11/20 00:36:50;;;;;;;31.10;16.17;;;4.80;99.90;;;;;;5064955;28;20182;-62
2022/11/20 00:39:16;;;;;;;26.63;15.37;;;4.80;99.90;;;;;;5052021;28;20224;-62
2022/11/20 00:41:42;;;;;;;25.97;14.80;;;4.70;99.90;;;;;;5065298;28;20192;-62
2022/11/20 00:44:07;;;;;;;32.27;14.67;;;4.80;99.90;;;;;;5071275;28;20260;-61
2022/11/20 00:46:33;;;;;;;24.83;14.63;;;4.80;99.90;;;;;;5064971;28;20272;-62
2022/11/20 00:48:59;;;;;;;34.07;16.87;;;4.60;99.90;;;;;;5056706;28;20299;-61
2022/11/20 00:51:27;;;;;;;33.60;13.77;;;4.70;99.90;;;;;;5054069;28;20208;-62
2022/11/20 00:53:56;;;;;;;29.07;15.47;;;4.90;99.90;;;;;;5071818;28;20211;-62
2022/11/20 00:56:21;;;;;;;25.70;13.40;;;5.00;99.90;;;;;;5061227;28;20547;-62
2022/11/20 00:58:48;;;;;;;21.70;13.50;;;5.00;99.90;;;;;;5061410;28;20253;-62
2022/11/20 01:01:19;;;;;;;34.43;14.63;;;5.00;99.90;;;;;;5067082;28;20280;-61
2022/11/20 01:03:47;;;;;;;28.03;13.77;;;4.90;99.90;;;;;;5054186;28;20261;-61
2022/11/20 01:06:16;;;;;;;30.87;15.07;;;4.80;99.90;;;;;;5053171;28;20182;-62
2022/11/20 01:08:42;;;;;;;28.27;13.60;;;5.00;99.90;;;;;;5056817;28;20231;-62
2022/11/20 01:11:11;;;;;;;24.67;14.53;;;5.00;99.90;;;;;;5071656;28;20350;-62
2022/11/20 01:13:37;;;;;;;30.50;15.20;;;5.00;99.90;;;;;;5055760;28;20244;-62
2022/11/20 01:16:04;;;;;;;29.43;14.30;;;5.00;99.90;;;;;;5069087;28;20231;-61
2022/11/20 01:18:30;;;;;;;25.13;14.27;;;5.10;99.90;;;;;;5061483;28;20216;-62
2022/11/20 01:20:59;;;;;;;26.00;14.50;;;5.10;99.90;;;;;;5064359;28;20206;-62
2022/11/20 01:23:25;;;;;;;27.40;12.97;;;5.20;99.90;;;;;;5052494;28;20224;-62
2022/11/20 01:25:51;;;;;;;27.73;13.47;;;5.20;99.90;;;;;;5060827;28;20258;-62
2022/11/20 01:28:16;;;;;;;29.47;13.67;;;5.20;99.90;;;;;;5057202;28;20622;-63
2022/11/20 01:30:42;;;;;;;33.00;16.13;;;5.20;99.90;;;;;;5052707;28;20213;-63
2022/11/20 01:33:07;;;;;;;25.90;13.77;;;5.20;99.90;;;;;;5051458;28;20194;-62
2022/11/20 01:35:33;;;;;;;24.57;14.60;;;5.10;99.90;;;;;;5061700;28;20886;-62
2022/11/20 01:37:59;;;;;;;29.43;13.07;;;5.10;99.90;;;;;;5052875;28;20306;-63
2022/11/20 01:40:24;;;;;;;30.30;16.20;;;5.10;99.90;;;;;;5052355;28;20339;-62
2022/11/20 01:43:22;;;;;;;25.90;14.73;;;5.10;99.90;;;;;;5051017;28;20190;-62
2022/11/20 01:46:00;;;;;;;33.43;14.87;;;5.10;99.90;;;;;;5051220;28;20630;-61
2022/11/20 01:48:37;;;;;;;28.67;14.10;;;5.10;99.90;;;;;;5052610;28;20650;-61
2022/11/20 01:51:06;;;;;;;36.83;15.97;;;5.00;99.90;;;;;;5051443;28;20206;-61
2022/11/20 01:53:36;;;;;;;28.60;13.90;;;5.10;99.90;;;;;;5063644;28;20177;-61
2022/11/20 01:56:04;;;;;;;25.27;13.40;;;5.20;99.90;;;;;;5051945;28;20227;-62
2022/11/20 01:58:35;;;;;;;31.83;15.47;;;5.10;99.90;;;;;;5051902;28;20170;-62
2022/11/20 02:01:02;;;;;;;28.93;16.07;;;4.90;99.90;;;;;;5060392;28;20181;-61
2022/11/20 02:03:28;;;;;;;29.03;15.43;;;4.90;99.90;;;;;;5057795;28;20259;-61
2022/11/20 02:06:19;;;;;;;26.77;14.00;;;4.90;99.90;;;;;;5051251;28;20650;-63
2022/11/20 02:08:44;;;;;;;31.47;15.53;;;5.10;99.90;;;;;;5064742;28;20181;-62
2022/11/20 02:11:12;;;;;;;26.70;14.80;;;5.20;99.90;;;;;;5084238;28;20255;-63
2022/11/20 02:13:44;;;;;;;31.17;16.77;;;5.20;99.90;;;;;;5051991;28;20202;-62
2022/11/20 02:16:15;;;;;;;31.27;15.70;;;5.20;99.90;;;;;;5051827;28;20632;-62
2022/11/20 02:18:42;;;;;;;30.37;16.03;;;5.10;99.90;;;;;;5055154;28;20186;-62
2022/11/20 02:21:30;;;;;;;35.83;16.13;;;5.10;99.90;;;;;;5062294;28;20186;-62
2022/11/20 02:24:02;;;;;;;36.13;18.03;;;5.20;99.90;;;;;;5051486;28;20565;-63
2022/11/20 02:26:32;;;;;;;39.47;20.13;;;5.10;99.90;;;;;;5056032;28;20182;-62
2022/11/20 02:29:00;;;;;;;32.13;15.13;;;5.10;99.90;;;;;;5051039;28;20186;-62
2022/11/20 02:31:26;;;;;;;41.73;16.70;;;5.20;99.90;;;;;;5070048;28;20311;-62
2022/11/20 02:33:58;;;;;;;34.53;19.83;;;5.20;99.90;;;;;;5067851;28;20312;-60
2022/11/20 02:36:27;;;;;;;30.47;15.07;;;5.20;99.90;;;;;;5061928;28;20177;-61
2022/11/20 02:38:53;;;;;;;33.60;16.70;;;5.20;99.90;;;;;;5061379;28;20685;-61
2022/11/20 02:41:18;;;;;;;33.67;17.07;;;5.20;99.90;;;;;;5053153;28;20198;-61
2022/11/20 02:43:44;;;;;;;37.17;18.10;;;5.20;99.90;;;;;;5057788;28;20183;-61
2022/11/20 02:46:10;;;;;;;34.33;17.80;;;5.20;99.90;;;;;;5057497;28;20189;-63
2022/11/20 02:48:35;;;;;;;35.17;19.10;;;5.30;99.90;;;;;;5055627;28;20643;-62
2022/11/20 02:51:02;;;;;;;35.33;19.00;;;5.30;99.90;;;;;;5054300;28;20590;-62
2022/11/20 02:53:27;;;;;;;30.53;16.40;;;5.20;99.90;;;;;;5054939;28;20665;-61
2022/11/20 02:55:53;;;;;;;30.87;16.87;;;5.20;99.90;;;;;;5064216;28;20181;-62
2022/11/20 02:58:18;;;;;;;36.07;16.87;;;5.20;99.90;;;;;;5055263;28;20710;-62
2022/11/20 03:00:44;;;;;;;35.13;16.93;;;5.20;99.90;;;;;;5063073;28;20545;-63
2022/11/20 03:03:10;;;;;;;29.33;15.43;;;5.20;99.90;;;;;;5054064;28;20548;-62
2022/11/20 03:05:35;;;;;;;37.93;17.43;;;5.20;99.90;;;;;;5055275;28;20525;-62
2022/11/20 03:08:01;;;;;;;32.20;17.27;;;5.30;99.90;;;;;;5055084;28;20593;-63
2022/11/20 03:10:27;;;;;;;30.17;16.77;;;5.30;99.90;;;;;;5056903;28;20210;-62
2022/11/20 03:12:55;;;;;;;33.07;17.60;;;5.40;99.90;;;;;;5061073;28;20562;-63
2022/11/20 03:15:23;;;;;;;39.93;16.07;;;5.30;99.90;;;;;;5060491;28;20185;-62
2022/11/20 03:17:52;;;;;;;35.93;15.73;;;5.30;99.90;;;;;;5055765;28;20186;-62
2022/11/20 03:20:18;;;;;;;36.37;16.37;;;5.30;99.90;;;;;;5054688;28;20639;-62
2022/11/20 03:22:43;;;;;;;35.60;16.80;;;5.30;99.90;;;;;;5054362;28;20193;-62
2022/11/20 03:25:09;;;;;;;35.07;15.63;;;5.50;99.90;;;;;;5037397;28;20185;-63
2022/11/20 03:27:35;;;;;;;37.03;17.03;;;5.40;99.90;;;;;;5054548;28;20189;-62
2022/11/20 03:30:01;;;;;;;30.43;15.93;;;5.40;99.90;;;;;;5047688;28;20219;-62
2022/11/20 03:32:26;;;;;;;30.97;15.30;;;5.40;99.90;;;;;;5070031;28;20209;-62
2022/11/20 03:34:52;;;;;;;29.63;16.60;;;5.50;99.90;;;;;;5055752;28;20635;-62
2022/11/20 03:37:18;;;;;;;34.90;15.87;;;5.40;99.90;;;;;;5062976;28;20706;-62
2022/11/20 03:39:43;;;;;;;30.63;16.00;;;5.40;99.90;;;;;;5067161;28;20186;-62
2022/11/20 03:42:44;;;;;;;30.27;15.27;;;5.40;99.90;;;;;;5058512;28;20190;-62
2022/11/20 03:44:55;;;;;;;24.43;12.77;;;5.40;99.90;;;;;;5059173;28;20190;-62
2022/11/20 03:47:21;;;;;;;33.70;15.20;;;5.60;99.90;;;;;;5054561;28;20222;-62
2022/11/20 03:49:46;;;;;;;33.00;15.17;;;5.50;99.90;;;;;;5054078;28;20566;-63
2022/11/20 03:52:12;;;;;;;41.93;16.50;;;5.50;99.90;;;;;;5052812;28;20992;-62
2022/11/20 03:54:38;;;;;;;33.40;14.43;;;5.40;99.90;;;;;;5037928;28;20194;-62
2022/11/20 03:57:03;;;;;;;31.87;13.90;;;5.40;99.90;;;;;;5071141;28;20181;-62
2022/11/20 03:59:29;;;;;;;30.57;15.23;;;5.30;99.90;;;;;;5056682;28;20269;-63
2022/11/20 04:01:55;;;;;;;26.63;14.50;;;5.30;99.90;;;;;;5057479;28;20192;-62
2022/11/20 04:04:20;;;;;;;20.50;11.80;;;5.30;99.90;;;;;;5061665;28;20189;-62
2022/11/20 04:06:46;;;;;;;22.27;10.90;;;5.40;99.90;;;;;;5057245;28;20181;-63
2022/11/20 04:09:13;;;;;;;21.20;11.73;;;5.50;99.90;;;;;;5060517;28;20185;-62
2022/11/20 04:11:40;;;;;;;23.70;13.30;;;5.30;99.90;;;;;;5059233;28;20182;-62
2022/11/20 04:14:12;;;;;;;27.47;13.70;;;5.20;99.90;;;;;;5057975;28;20197;-62
2022/11/20 04:16:37;;;;;;;27.10;12.03;;;5.10;99.90;;;;;;5062758;28;20531;-63
2022/11/20 04:19:09;;;;;;;22.87;12.83;;;5.00;99.90;;;;;;5069967;28;20230;-62
2022/11/20 04:21:34;;;;;;;29.60;12.87;;;4.90;99.90;;;;;;5053887;28;20235;-62
2022/11/20 04:24:01;;;;;;;26.27;13.83;;;4.90;99.90;;;;;;5057263;28;20186;-61
2022/11/20 04:26:28;;;;;;;21.73;11.23;;;4.90;99.90;;;;;;5053720;28;20190;-62
2022/11/20 04:28:54;;;;;;;27.07;11.77;;;4.90;99.90;;;;;;5066283;28;20213;-61
2022/11/20 04:31:23;;;;;;;26.47;13.37;;;5.10;99.90;;;;;;5061869;28;20290;-61
2022/11/20 04:33:49;;;;;;;29.33;12.27;;;5.20;99.90;;;;;;5068445;28;20186;-61
2022/11/20 04:36:23;;;;;;;23.37;11.47;;;5.20;99.90;;;;;;5065304;28;20186;-61
2022/11/20 04:39:07;;;;;;;24.23;12.73;;;5.20;99.90;;;;;;5054409;28;20194;-61
2022/11/20 04:41:35;;;;;;;26.27;13.53;;;5.10;99.90;;;;;;5060648;28;20558;-61
2022/11/20 04:44:03;;;;;;;26.57;13.60;;;5.10;99.90;;;;;;5072562;28;20186;-61
2022/11/20 04:46:30;;;;;;;22.00;11.10;;;5.10;99.90;;;;;;5053040;28;20298;-62
2022/11/20 04:48:57;;;;;;;25.60;11.67;;;5.10;99.90;;;;;;5072460;28;20530;-61
2022/11/20 04:51:23;;;;;;;24.27;12.40;;;5.10;99.90;;;;;;5053918;28;20639;-61
2022/11/20 04:53:48;;;;;;;23.17;12.10;;;5.20;99.90;;;;;;5059847;28;20284;-61
2022/11/20 04:56:14;;;;;;;24.87;12.17;;;5.20;99.90;;;;;;5066361;28;20187;-61
2022/11/20 04:58:40;;;;;;;27.13;12.30;;;5.30;99.90;;;;;;5056279;28;20188;-61
2022/11/20 05:01:12;;;;;;;23.97;11.70;;;5.50;99.90;;;;;;5053000;28;20200;-61
2022/11/20 05:03:39;;;;;;;25.97;12.70;;;5.80;99.90;;;;;;5059475;28;20174;-62
2022/11/20 05:06:06;;;;;;;25.20;13.63;;;6.00;99.90;;;;;;5051700;28;20182;-62
2022/11/20 05:08:32;;;;;;;28.67;12.40;;;6.00;99.90;;;;;;5051103;28;20561;-61
2022/11/20 05:11:19;;;;;;;25.90;12.27;;;5.90;99.90;;;;;;5053161;28;20274;-61
2022/11/20 05:13:45;;;;;;;20.87;11.40;;;5.80;99.90;;;;;;5066731;28;20721;-62
2022/11/20 05:16:13;;;;;;;26.87;12.60;;;5.60;99.90;;;;;;5066433;28;20270;-62
2022/11/20 05:18:39;;;;;;;22.80;11.10;;;5.50;99.90;;;;;;5088624;28;20184;-63
2022/11/20 05:21:07;;;;;;;28.50;13.20;;;5.50;99.90;;;;;;5061942;28;20174;-62
2022/11/20 05:23:33;;;;;;;31.30;13.60;;;5.50;99.90;;;;;;5065598;28;20280;-62
2022/11/20 05:25:59;;;;;;;21.90;13.07;;;5.70;99.90;;;;;;5052423;28;20710;-62
2022/11/20 05:28:26;;;;;;;27.43;13.57;;;5.90;99.90;;;;;;5062469;28;20264;-62
2022/11/20 05:30:52;;;;;;;28.80;12.63;;;5.80;99.90;;;;;;5055834;28;20241;-62
2022/11/20 05:33:18;;;;;;;28.03;13.40;;;5.80;99.90;;;;;;5068350;28;20703;-62
2022/11/20 05:35:44;;;;;;;30.20;13.20;;;5.70;99.90;;;;;;5050889;28;20189;-62
2022/11/20 05:38:10;;;;;;;30.13;14.30;;;5.60;99.90;;;;;;5052417;28;20212;-62
2022/11/20 05:40:35;;;;;;;30.77;13.97;;;5.60;99.90;;;;;;5052745;28;20216;-63
2022/11/20 05:43:01;;;;;;;28.10;12.60;;;5.60;99.90;;;;;;5053805;28;20192;-63
2022/11/20 05:45:27;;;;;;;32.23;14.70;;;5.70;99.90;;;;;;5054814;28;20655;-62
2022/11/20 05:47:53;;;;;;;26.50;13.57;;;5.60;99.90;;;;;;5069279;28;20264;-62
2022/11/20 05:50:19;;;;;;;23.27;12.07;;;5.60;99.90;;;;;;5068855;28;20576;-62
2022/11/20 05:52:44;;;;;;;28.23;14.47;;;5.50;99.90;;;;;;5057424;28;20193;-63
2022/11/20 05:55:10;;;;;;;29.73;13.70;;;5.50;99.90;;;;;;5067408;28;20204;-62
2022/11/20 05:57:36;;;;;;;28.93;14.03;;;5.60;99.90;;;;;;5054530;28;20189;-62
2022/11/20 06:00:02;;;;;;;28.60;14.60;;;5.70;99.90;;;;;;5065810;28;20192;-62
2022/11/20 06:02:28;;;;;;;32.60;14.83;;;5.70;99.90;;;;;;5048327;28;20572;-63
2022/11/20 06:04:54;;;;;;;30.33;14.87;;;5.80;99.90;;;;;;5055940;28;20186;-62
2022/11/20 06:07:19;;;;;;;28.67;14.30;;;6.10;99.90;;;;;;5050976;28;20186;-63
2022/11/20 06:09:45;;;;;;;39.30;13.90;;;6.10;99.90;;;;;;5052509;28;20217;-62
2022/11/20 06:12:11;;;;;;;34.27;15.43;;;6.00;99.90;;;;;;5053830;28;20190;-63
2022/11/20 06:14:36;;;;;;;26.43;13.00;;;6.00;99.90;;;;;;5054718;28;20545;-62
2022/11/20 06:17:02;;;;;;;27.27;13.60;;;6.10;99.90;;;;;;5084305;28;20183;-61
2022/11/20 06:19:28;;;;;;;28.57;12.53;;;6.00;99.90;;;;;;5063187;28;20178;-62
2022/11/20 06:21:54;;;;;;;36.20;14.67;;;6.00;99.90;;;;;;5056479;28;20217;-62
2022/11/20 06:24:19;;;;;;;26.57;14.63;;;6.10;99.90;;;;;;5063637;28;20186;-62
2022/11/20 06:26:45;;;;;;;29.87;14.33;;;5.90;99.90;;;;;;5059538;28;20670;-62
2022/11/20 06:29:11;;;;;;;28.07;13.37;;;5.80;99.90;;;;;;5060038;28;20237;-63
2022/11/20 06:31:37;;;;;;;31.93;16.17;;;5.70;99.90;;;;;;5061467;28;20213;-62
2022/11/20 06:34:06;;;;;;;33.50;13.07;;;5.80;99.90;;;;;;5054517;28;20225;-61
2022/11/20 06:36:32;;;;;;;36.13;15.10;;;5.90;99.90;;;;;;5056454;28;20627;-61
2022/11/20 06:38:58;;;;;;;34.37;14.77;;;5.90;99.90;;;;;;5055572;28;20228;-61
2022/11/20 06:41:25;;;;;;;30.60;12.20;;;5.80;99.90;;;;;;5060496;28;20695;-61
2022/11/20 06:43:51;;;;;;;27.67;12.57;;;5.80;99.90;;;;;;5060097;28;20294;-62
2022/11/20 06:46:18;;;;;;;27.43;13.97;;;5.90;99.90;;;;;;5069348;28;20538;-62
2022/11/20 06:48:44;;;;;;;32.90;12.97;;;5.80;99.90;;;;;;5062962;28;20689;-61
2022/11/20 06:51:10;;;;;;;29.43;14.17;;;6.00;99.90;;;;;;5059229;28;20341;-62
2022/11/20 06:53:37;;;;;;;22.17;12.03;;;6.00;99.90;;;;;;5093813;28;20269;-62
2022/11/20 06:56:03;;;;;;;29.87;14.23;;;6.00;99.90;;;;;;5060789;28;20186;-62
2022/11/20 06:58:31;;;;;;;25.30;11.80;;;6.10;99.90;;;;;;5053851;28;20248;-62
2022/11/20 07:01:08;;;;;;;27.93;13.30;;;6.10;99.90;;;;;;5055396;28;20647;-62
2022/11/20 07:03:35;;;;;;;32.63;14.50;;;6.20;99.90;;;;;;5064636;28;20188;-62
2022/11/20 07:06:01;;;;;;;39.03;15.03;;;6.10;99.90;;;;;;5065152;28;20179;-62
2022/11/20 07:08:28;;;;;;;34.57;15.73;;;6.10;99.90;;;;;;5056185;28;20182;-62
2022/11/20 07:10:57;;;;;;;34.60;16.20;;;6.10;99.90;;;;;;5059686;28;20213;-62
2022/11/20 07:13:23;;;;;;;32.63;12.20;;;6.10;99.90;;;;;;5054797;28;20201;-63
2022/11/20 07:15:49;;;;;;;32.70;15.70;;;6.50;99.90;;;;;;5065527;28;20193;-61
2022/11/20 07:18:14;;;;;;;33.17;14.33;;;6.50;99.90;;;;;;5070174;28;20257;-63
2022/11/20 07:20:40;;;;;;;26.80;13.40;;;6.40;99.90;;;;;;5057548;28;20271;-62
2022/11/20 07:23:06;;;;;;;36.87;14.83;;;6.30;99.90;;;;;;5055401;28;20190;-61
2022/11/20 07:25:31;;;;;;;32.60;14.27;;;6.30;99.90;;;;;;5060166;28;20193;-61
2022/11/20 07:27:58;;;;;;;38.87;15.63;;;6.40;99.90;;;;;;5061803;28;20184;-61
2022/11/20 07:30:24;;;;;;;30.93;13.63;;;6.60;99.90;;;;;;5059518;28;20610;-61
2022/11/20 07:32:55;;;;;;;33.63;15.37;;;6.60;99.90;;;;;;5059360;28;20678;-63
2022/11/20 07:35:21;;;;;;;38.87;15.53;;;6.60;99.90;;;;;;5054464;28;20247;-62
2022/11/20 07:37:48;;;;;;;43.13;15.83;;;6.60;99.90;;;;;;5061542;28;20182;-62
2022/11/20 07:40:14;;;;;;;39.10;14.87;;;6.50;99.90;;;;;;5073453;28;20233;-63
2022/11/20 07:42:51;;;;;;;36.97;14.40;;;6.50;99.90;;;;;;5064658;28;20193;-63
2022/11/20 07:45:18;;;;;;;47.10;16.93;;;6.70;99.90;;;;;;5056770;28;20178;-62
2022/11/20 07:47:43;;;;;;;38.27;17.07;;;6.70;99.90;;;;;;5063634;28;20176;-62
2022/11/20 07:50:09;;;;;;;35.27;16.33;;;6.80;99.90;;;;;;5053055;28;20221;-61
2022/11/20 07:52:35;;;;;;;43.63;17.17;;;6.80;99.90;;;;;;5054562;28;20246;-62
2022/11/20 07:55:01;;;;;;;46.53;17.10;;;6.60;99.90;;;;;;5053625;28;20269;-61
2022/11/20 07:57:26;;;;;;;31.30;13.77;;;6.70;99.90;;;;;;5054436;28;20267;-61
2022/11/20 07:59:52;;;;;;;47.27;16.70;;;6.70;99.90;;;;;;5067828;28;20287;-62
2022/11/20 08:02:17;;;;;;;35.67;15.47;;;6.70;99.90;;;;;;5053210;28;20606;-61
2022/11/20 08:04:43;;;;;;;37.63;14.07;;;6.80;99.90;;;;;;5058703;28;20668;-61
2022/11/20 08:07:09;;;;;;;42.23;16.33;;;6.70;99.90;;;;;;5060372;28;20251;-61
2022/11/20 08:09:34;;;;;;;40.90;16.77;;;6.60;99.90;;;;;;5061008;28;20643;-62
2022/11/20 08:14:44;;;;;;;41.87;15.37;;;6.80;99.90;;;;;;5060709;28;20202;-62
2022/11/20 08:17:10;;;;;;;39.10;15.40;;;6.80;99.90;;;;;;5057470;28;20198;-62
2022/11/20 08:19:35;;;;;;;43.43;16.13;;;6.80;99.90;;;;;;5060275;28;20643;-62
2022/11/20 08:22:01;;;;;;;45.50;16.47;;;6.80;99.90;;;;;;5056049;28;20304;-61
2022/11/20 08:24:27;;;;;;;41.37;18.60;;;6.80;99.90;;;;;;5053567;28;20186;-62
2022/11/20 08:26:52;;;;;;;40.27;16.10;;;6.80;99.90;;;;;;5069942;28;20185;-62
2022/11/20 08:29:20;;;;;;;41.43;15.43;;;6.90;99.90;;;;;;5085895;28;20273;-62
2022/11/20 08:31:46;;;;;;;44.70;16.40;;;7.00;99.90;;;;;;5066653;28;20637;-62
2022/11/20 08:34:12;;;;;;;46.47;17.07;;;7.10;99.90;;;;;;5060313;28;20189;-63
2022/11/20 08:36:38;;;;;;;45.97;17.33;;;7.10;99.90;;;;;;5064215;28;20638;-62
2022/11/20 08:39:03;;;;;;;36.10;15.47;;;7.10;99.90;;;;;;5070848;28;20177;-62
2022/11/20 08:41:32;;;;;;;46.83;15.40;;;7.30;99.90;;;;;;5063582;28;20197;-62
2022/11/20 08:44:03;;;;;;;36.03;15.03;;;7.40;99.90;;;;;;5060873;28;20186;-62
2022/11/20 08:46:41;;;;;;;47.90;17.17;;;7.40;99.90;;;;;;5067307;28;20539;-62
2022/11/20 08:49:12;;;;;;;51.80;16.40;;;7.30;99.90;;;;;;5053425;28;20182;-62
2022/11/20 08:51:38;;;;;;;46.13;16.67;;;7.40;99.90;;;;;;5066980;28;20206;-63
2022/11/20 08:54:05;;;;;;;50.90;17.67;;;7.30;99.90;;;;;;5064484;28;20178;-62
2022/11/20 08:56:31;;;;;;;39.20;15.57;;;7.30;99.90;;;;;;5070694;28;20537;-62
2022/11/20 08:58:59;;;;;;;47.80;19.10;;;7.40;99.90;;;;;;5057454;28;20623;-62
2022/11/20 09:01:25;;;;;;;40.00;17.87;;;7.40;99.90;;;;;;5065075;28;20182;-62
2022/11/20 09:03:51;;;;;;;51.73;16.83;;;7.50;99.90;;;;;;5066070;28;20505;-62
2022/11/20 09:06:18;;;;;;;48.10;19.30;;;7.80;99.90;;;;;;5053133;28;20188;-62
2022/11/20 09:08:43;;;;;;;43.53;17.83;;;7.90;99.90;;;;;;5057987;28;20188;-63
2022/11/20 09:11:10;;;;;;;48.37;17.70;;;7.90;99.90;;;;;;5053011;28;20331;-63
2022/11/20 09:13:36;;;;;;;49.17;16.70;;;8.00;99.90;;;;;;5053499;28;20251;-63
2022/11/20 09:16:07;;;;;;;43.00;17.60;;;8.20;99.90;;;;;;5053511;28;20678;-63
2022/11/20 09:18:37;;;;;;;44.67;17.20;;;8.20;99.90;;;;;;5056193;28;20534;-63
2022/11/20 09:21:04;;;;;;;47.40;15.40;;;8.20;99.90;;;;;;5046384;28;20201;-62
2022/11/20 09:23:35;;;;;;;39.77;15.00;;;8.40;99.90;;;;;;5052875;28;20260;-62
2022/11/20 09:26:12;;;;;;;50.83;18.17;;;8.40;99.90;;;;;;5054582;28;20174;-63
2022/11/20 09:28:38;;;;;;;41.73;17.10;;;8.40;99.90;;;;;;5065825;28;20204;-62
2022/11/20 09:31:23;;;;;;;50.80;17.80;;;8.30;99.90;;;;;;5056571;28;20292;-62
2022/11/20 09:33:48;;;;;;;38.40;17.50;;;8.40;99.90;;;;;;5052756;28;20260;-62
2022/11/20 09:36:15;;;;;;;39.40;14.83;;;8.50;99.90;;;;;;5056043;28;20236;-61
2022/11/20 09:38:41;;;;;;;45.23;16.77;;;8.50;99.90;;;;;;5052629;28;20174;-62
2022/11/20 09:41:30;;;;;;;38.07;16.87;;;8.50;99.90;;;;;;5052498;28;20224;-62
2022/11/20 09:44:24;;;;;;;45.57;16.37;;;8.30;99.90;;;;;;5086268;28;20304;-62
2022/11/20 09:47:16;;;;;;;41.50;16.63;;;8.50;99.90;;;;;;5063813;28;20177;-63
2022/11/20 09:49:59;;;;;;;43.13;16.53;;;8.60;99.90;;;;;;5058009;28;20558;-62
2022/11/20 09:52:43;;;;;;;36.50;15.73;;;8.60;99.90;;;;;;5054796;28;20272;-62
2022/11/20 09:55:11;;;;;;;44.80;17.33;;;8.60;99.90;;;;;;5063068;28;20173;-62
2022/11/20 09:57:40;;;;;;;38.30;15.93;;;8.70;99.90;;;;;;5059907;28;20646;-62
2022/11/20 10:00:12;;;;;;;35.13;14.37;;;8.70;99.90;;;;;;5063002;28;20216;-63
2022/11/20 10:03:39;;;;;;;38.23;15.00;;;8.60;99.90;;;;;;5057515;28;20174;-62
2022/11/20 10:06:09;;;;;;;36.40;12.90;;;8.70;99.90;;;;;;5045405;28;20181;-62
2022/11/20 10:08:43;;;;;;;37.50;13.33;;;8.70;99.90;;;;;;5036912;28;20201;-63
2022/11/20 10:11:26;;;;;;;35.33;15.43;;;8.90;99.90;;;;;;5065371;28;20264;-62
2022/11/20 10:14:19;;;;;;;49.03;17.53;;;9.00;99.90;;;;;;5064417;28;20190;-62
2022/11/20 10:17:02;;;;;;;46.03;19.70;;;9.10;99.90;;;;;;5055831;28;20182;-63
2022/11/20 10:19:37;;;;;;;44.83;17.00;;;9.30;99.90;;;;;;5056204;28;20186;-63
2022/11/20 10:22:25;;;;;;;37.57;15.87;;;9.40;99.90;;;;;;5055344;28;20660;-63
2022/11/20 10:25:07;;;;;;;28.57;14.90;;;9.40;99.90;;;;;;5055980;28;20319;-63
2022/11/20 10:27:54;;;;;;;29.60;13.60;;;9.30;99.90;;;;;;5056440;28;20178;-63
2022/11/20 10:30:22;;;;;;;30.33;14.03;;;9.30;99.90;;;;;;5055671;28;20297;-63
2022/11/20 10:33:19;;;;;;;33.20;15.23;;;9.20;99.90;;;;;;5087973;28;20272;-63
2022/11/20 10:36:13;;;;;;;27.23;13.87;;;9.30;99.90;;;;;;5055553;28;20189;-63
2022/11/20 10:38:46;;;;;;;29.97;12.47;;;9.50;99.90;;;;;;5055905;28;20182;-63
2022/11/20 10:41:25;;;;;;;35.20;13.63;;;9.60;99.90;;;;;;5055957;28;20663;-63
2022/11/20 10:44:14;;;;;;;32.83;12.13;;;9.70;99.90;;;;;;5065630;28;20268;-61
2022/11/20 10:46:44;;;;;;;24.30;11.13;;;10.00;99.90;;;;;;5072696;28;20215;-62
2022/11/20 10:49:17;;;;;;;30.30;14.85;;;10.00;99.90;;;;;;5066582;28;20177;-62
2022/11/20 10:52:17;;;;;;;25.13;12.52;;;10.20;99.90;;;;;;5055716;28;20277;-62
2022/11/20 10:55:22;;;;;;;24.55;12.10;;;10.60;99.90;;;;;;5059169;28;20312;-62
2022/11/20 10:58:08;;;;;;;24.75;11.38;;;10.50;99.90;;;;;;5055719;28;20208;-62
2022/11/20 11:00:34;;;;;;;12.55;7.35;;;10.60;99.90;;;;;;5067473;28;20203;-62
2022/11/20 11:03:03;;;;;;;14.80;8.88;;;10.70;99.90;;;;;;5056652;28;20702;-62
2022/11/20 11:05:48;;;;;;;14.27;6.63;;;10.80;99.90;;;;;;5056048;28;20174;-62
2022/11/20 11:08:17;;;;;;;10.10;5.87;;;10.80;99.90;;;;;;5067225;28;20643;-62
2022/11/20 11:10:57;;;;;;;14.07;7.10;;;10.70;99.90;;;;;;5055397;28;20206;-62
2022/11/20 11:13:24;;;;;;;17.67;6.47;;;10.60;99.90;;;;;;5056558;28;20209;-62
2022/11/20 11:15:51;;;;;;;13.90;6.40;;;10.40;99.90;;;;;;5055344;28;20177;-63
2022/11/20 11:18:33;;;;;;;10.77;6.37;;;10.30;99.90;;;;;;5056699;28;20212;-61
2022/11/20 11:21:01;;;;;;;9.83;5.53;;;10.30;99.90;;;;;;5087938;28;20543;-61
2022/11/20 11:23:39;;;;;;;7.77;3.90;;;10.30;99.90;;;;;;5054680;28;20186;-62
2022/11/20 11:26:26;;;;;;;9.33;4.93;;;10.20;99.90;;;;;;5055041;28;20180;-61
2022/11/20 11:28:57;;;;;;;10.03;5.97;;;10.20;99.90;;;;;;5055734;28;20190;-62
2022/11/20 11:31:28;;;;;;;12.77;5.43;;;10.30;99.90;;;;;;5064061;28;20305;-61
2022/11/20 11:34:14;;;;;;;13.80;5.60;;;10.40;99.90;;;;;;5055593;28;20583;-62
2022/11/20 11:36:41;;;;;;;9.90;5.77;;;10.30;99.90;;;;;;5063466;28;20208;-62
2022/11/20 11:39:15;;;;;;;9.87;6.93;;;10.40;99.90;;;;;;5052796;28;20213;-62
2022/11/20 11:41:41;;;;;;;7.07;4.63;;;10.40;99.90;;;;;;5054817;28;20182;-61
2022/11/20 11:47:40;;;;;;;12.23;4.10;;;10.30;99.90;;;;;;5054858;28;20192;-61
2022/11/20 11:50:09;;;;;;;6.20;4.03;;;10.30;99.90;;;;;;5053622;28;20255;-61
2022/11/20 11:52:52;;;;;;;5.83;3.77;;;10.40;99.90;;;;;;5056962;28;20220;-61
2022/11/20 11:55:56;;;;;;;7.30;3.60;;;10.30;99.90;;;;;;5054092;28;20186;-61
2022/11/20 11:58:41;;;;;;;12.93;4.60;;;10.30;99.90;;;;;;5100427;28;20178;-61
2022/11/20 12:01:27;;;;;;;6.87;4.30;;;10.30;99.90;;;;;;5054853;28;20643;-62
2022/11/20 12:04:05;;;;;;;9.00;3.77;;;10.20;99.90;;;;;;5068349;28;20185;-62
2022/11/20 12:06:34;;;;;;;3.97;3.30;;;10.10;99.90;;;;;;5070533;28;20177;-62
2022/11/20 12:09:04;;;;;;;5.70;3.77;;;10.00;99.90;;;;;;5061452;28;20173;-62
2022/11/20 12:11:46;;;;;;;8.33;3.30;;;10.10;99.90;;;;;;5069774;28;20213;-62
2022/11/20 12:14:30;;;;;;;5.67;3.87;;;10.10;99.90;;;;;;5062453;28;20560;-62
2022/11/20 12:16:57;;;;;;;7.43;3.43;;;10.00;99.90;;;;;;5088029;28;20691;-62
2022/11/20 12:19:23;;;;;;;8.17;3.70;;;9.90;99.90;;;;;;5053775;28;20193;-62
2022/11/20 12:21:55;;;;;;;8.23;3.97;;;9.90;99.90;;;;;;5065960;28;20556;-62
2022/11/20 12:24:50;;;;;;;8.30;3.20;;;9.90;99.90;;;;;;5053960;28;20566;-61
2022/11/20 12:27:36;;;;;;;4.90;3.10;;;9.70;99.90;;;;;;5053826;28;20182;-62
2022/11/20 12:30:12;;;;;;;7.83;3.77;;;9.50;99.90;;;;;;5066902;28;20609;-62
2022/11/20 12:33:04;;;;;;;8.40;4.40;;;9.50;99.90;;;;;;5066000;28;20552;-61
2022/11/20 12:35:36;;;;;;;10.20;4.00;;;9.60;99.90;;;;;;5063571;28;20177;-62
2022/11/20 12:38:23;;;;;;;4.73;4.17;;;9.60;99.90;;;;;;5063552;28;20170;-61
2022/11/20 12:41:07;;;;;;;6.37;3.40;;;9.50;99.90;;;;;;5055149;28;20265;-61
2022/11/20 12:47:36;;;;;;;5.97;3.50;;;9.30;99.90;;;;;;5063291;28;20270;-61
2022/11/20 12:50:16;;;;;;;5.90;3.60;;;9.30;99.90;;;;;;5055545;28;20205;-61
2022/11/20 12:52:56;;;;;;;5.50;3.40;;;9.20;99.90;;;;;;5065441;28;20217;-62
2022/11/20 12:55:41;;;;;;;3.40;3.10;;;9.20;99.90;;;;;;5057293;28;20205;-62
2022/11/20 12:58:30;;;;;;;4.90;2.73;;;9.30;99.90;;;;;;5057589;28;20647;-62
2022/11/20 13:01:39;;;;;;;8.57;3.10;;;9.20;99.90;;;;;;5053542;28;20182;-62
2022/11/20 13:04:00;;;;;;;4.90;3.77;;;9.20;99.90;;;;;;5083424;28;20268;-61